sensor_id;sensor_type;location;lat;lon;timestamp;pressure;altitude;pressure_sealevel;temperature;humidity
55289;BME280;41154;45.394;5.734;2022-12-18T00:01:57;97796.41;;;-3.52;100.00
55289;BME280;41154;45.394;5.734;2022-12-18T00:04:25;97807.44;;;-3.39;100.00
55289;BME280;41154;45.394;5.734;2022-12-18T00:06:52;97814.31;;;-3.28;100.00
55289;BME280;41154;45.394;5.734;2022-12-18T00:09:18;97808.53;;;-3.41;100.00
55289;BME280;41154;45.394;5.734;2022-12-18T00:11:44;97800.41;;;-3.48;100.00
55289;BME280;41154;45.394;5.734;2022-12-18T00:14:13;97800.16;;;-3.55;100.00
55289;BME280;41154;45.394;5.734;2022-12-18T00:16:39;97798.69;;;-3.77;100.00
55289;BME280;41154;45.394;5.734;2022-12-18T00:19:06;97797.38;;;-3.63;100.00
55289;BME280;41154;45.394;5.734;2022-12-18T00:21:33;97791.31;;;-3.44;100.00
55289;BME280;41154;45.394;5.734;2022-12-18T00:23:59;97785.91;;;-3.52;100.00
55289;BME280;41154;45.394;5.734;2022-12-18T00:29:04;97779.31;;;-3.56;100.00
55289;BME280;41154;45.394;5.734;2022-12-18T00:31:30;97780.38;;;-3.49;100.00
55289;BME280;41154;45.394;5.734;2022-12-18T00:33:56;97774.72;;;-3.45;100.00
55289;BME280;41154;45.394;5.734;2022-12-18T00:36:25;97777.75;;;-3.39;100.00
55289;BME280;41154;45.394;5.734;2022-12-18T00:38:53;97779.03;;;-3.63;100.00
55289;BME280;41154;45.394;5.734;2022-12-18T00:41:19;97778.25;;;-3.73;100.00
55289;BME280;41154;45.394;5.734;2022-12-18T00:44:05;97778.78;;;-3.70;100.00
55289;BME280;41154;45.394;5.734;2022-12-18T00:46:31;97775.22;;;-3.78;100.00
55289;BME280;41154;45.394;5.734;2022-12-18T00:48:57;97769.97;;;-3.78;100.00
55289;BME280;41154;45.394;5.734;2022-12-18T00:51:24;97766.50;;;-3.79;100.00
55289;BME280;41154;45.394;5.734;2022-12-18T00:53:51;97768.00;;;-3.67;100.00
55289;BME280;41154;45.394;5.734;2022-12-18T00:56:18;97769.25;;;-3.61;100.00
55289;BME280;41154;45.394;5.734;2022-12-18T00:58:44;97766.06;;;-3.55;100.00
55289;BME280;41154;45.394;5.734;2022-12-18T01:01:09;97769.69;;;-3.66;100.00
55289;BME280;41154;45.394;5.734;2022-12-18T01:03:35;97776.84;;;-3.68;100.00
55289;BME280;41154;45.394;5.734;2022-12-18T01:06:08;97777.09;;;-3.51;100.00
55289;BME280;41154;45.394;5.734;2022-12-18T01:08:35;97774.59;;;-3.53;100.00
55289;BME280;41154;45.394;5.734;2022-12-18T01:11:07;97777.94;;;-3.61;100.00
55289;BME280;41154;45.394;5.734;2022-12-18T01:13:34;97769.41;;;-3.63;100.00
55289;BME280;41154;45.394;5.734;2022-12-18T01:15:59;97771.59;;;-3.58;100.00
55289;BME280;41154;45.394;5.734;2022-12-18T01:18:25;97768.97;;;-3.68;100.00
55289;BME280;41154;45.394;5.734;2022-12-18T01:20:51;97784.31;;;-3.73;100.00
55289;BME280;41154;45.394;5.734;2022-12-18T01:23:16;97783.63;;;-3.75;100.00
55289;BME280;41154;45.394;5.734;2022-12-18T01:25:43;97784.59;;;-3.76;100.00
55289;BME280;41154;45.394;5.734;2022-12-18T01:28:09;97790.53;;;-3.84;100.00
55289;BME280;41154;45.394;5.734;2022-12-18T01:30:35;97784.19;;;-3.81;100.00
55289;BME280;41154;45.394;5.734;2022-12-18T01:33:04;97779.09;;;-3.92;100.00
55289;BME280;41154;45.394;5.734;2022-12-18T01:35:31;97786.53;;;-3.78;100.00
55289;BME280;41154;45.394;5.734;2022-12-18T01:37:57;97792.16;;;-3.73;100.00
55289;BME280;41154;45.394;5.734;2022-12-18T01:40:23;97792.88;;;-3.81;100.00
55289;BME280;41154;45.394;5.734;2022-12-18T01:42:53;97800.19;;;-3.84;100.00
55289;BME280;41154;45.394;5.734;2022-12-18T01:47:48;97816.06;;;-3.95;100.00
55289;BME280;41154;45.394;5.734;2022-12-18T01:50:16;97816.34;;;-3.99;100.00
55289;BME280;41154;45.394;5.734;2022-12-18T01:52:50;97820.75;;;-4.09;100.00
55289;BME280;41154;45.394;5.734;2022-12-18T01:55:19;97829.56;;;-3.81;100.00
55289;BME280;41154;45.394;5.734;2022-12-18T01:57:47;97829.56;;;-3.90;100.00
55289;BME280;41154;45.394;5.734;2022-12-18T02:00:17;97830.81;;;-3.94;100.00
55289;BME280;41154;45.394;5.734;2022-12-18T02:02:45;97836.47;;;-3.89;100.00
55289;BME280;41154;45.394;5.734;2022-12-18T02:05:40;97833.44;;;-3.94;100.00
55289;BME280;41154;45.394;5.734;2022-12-18T02:08:11;97840.75;;;-3.88;100.00
55289;BME280;41154;45.394;5.734;2022-12-18T02:11:13;97847.25;;;-3.92;100.00
55289;BME280;41154;45.394;5.734;2022-12-18T02:14:07;97843.34;;;-3.88;100.00
55289;BME280;41154;45.394;5.734;2022-12-18T02:22:41;97866.50;;;-4.13;100.00
55289;BME280;41154;45.394;5.734;2022-12-18T02:28:04;97870.25;;;-4.16;100.00
55289;BME280;41154;45.394;5.734;2022-12-18T02:30:34;97872.88;;;-4.16;100.00
55289;BME280;41154;45.394;5.734;2022-12-18T02:33:02;97865.28;;;-4.09;100.00
55289;BME280;41154;45.394;5.734;2022-12-18T02:35:30;97879.22;;;-3.99;100.00
55289;BME280;41154;45.394;5.734;2022-12-18T02:37:59;97875.34;;;-4.04;100.00
55289;BME280;41154;45.394;5.734;2022-12-18T02:40:29;97884.16;;;-4.05;100.00
55289;BME280;41154;45.394;5.734;2022-12-18T02:43:09;97883.34;;;-4.06;100.00
55289;BME280;41154;45.394;5.734;2022-12-18T02:45:34;97866.69;;;-3.95;100.00
55289;BME280;41154;45.394;5.734;2022-12-18T02:48:01;97873.56;;;-4.04;100.00
55289;BME280;41154;45.394;5.734;2022-12-18T02:50:36;97873.13;;;-4.09;100.00
55289;BME280;41154;45.394;5.734;2022-12-18T03:04:01;97873.59;;;-3.94;100.00
55289;BME280;41154;45.394;5.734;2022-12-18T03:06:33;97873.41;;;-4.02;100.00
55289;BME280;41154;45.394;5.734;2022-12-18T03:09:07;97877.03;;;-4.03;100.00
55289;BME280;41154;45.394;5.734;2022-12-18T03:11:38;97871.78;;;-4.03;100.00
55289;BME280;41154;45.394;5.734;2022-12-18T03:14:26;97873.41;;;-4.02;100.00
55289;BME280;41154;45.394;5.734;2022-12-18T03:16:58;97877.25;;;-4.26;100.00
55289;BME280;41154;45.394;5.734;2022-12-18T03:19:28;97866.22;;;-4.20;100.00
55289;BME280;41154;45.394;5.734;2022-12-18T03:22:00;97879.75;;;-4.15;100.00
55289;BME280;41154;45.394;5.734;2022-12-18T03:24:34;97879.06;;;-4.17;100.00
55289;BME280;41154;45.394;5.734;2022-12-18T03:27:02;97878.09;;;-4.16;100.00
55289;BME280;41154;45.394;5.734;2022-12-18T03:29:34;97891.06;;;-4.14;100.00
55289;BME280;41154;45.394;5.734;2022-12-18T03:32:09;97892.41;;;-4.20;100.00
55289;BME280;41154;45.394;5.734;2022-12-18T03:34:39;97895.72;;;-4.18;100.00
55289;BME280;41154;45.394;5.734;2022-12-18T03:37:08;97893.03;;;-3.97;100.00
55289;BME280;41154;45.394;5.734;2022-12-18T03:39:36;97901.34;;;-4.32;100.00
55289;BME280;41154;45.394;5.734;2022-12-18T03:42:26;97899.25;;;-4.38;100.00
55289;BME280;41154;45.394;5.734;2022-12-18T03:50:15;97905.97;;;-4.05;100.00
55289;BME280;41154;45.394;5.734;2022-12-18T03:52:50;97899.72;;;-4.23;100.00
55289;BME280;41154;45.394;5.734;2022-12-18T03:55:19;97904.56;;;-4.28;100.00
55289;BME280;41154;45.394;5.734;2022-12-18T03:57:53;97910.47;;;-4.26;100.00
55289;BME280;41154;45.394;5.734;2022-12-18T04:00:20;97914.50;;;-4.22;100.00
55289;BME280;41154;45.394;5.734;2022-12-18T04:02:56;97909.38;;;-4.24;100.00
55289;BME280;41154;45.394;5.734;2022-12-18T04:05:32;97915.59;;;-4.15;100.00
55289;BME280;41154;45.394;5.734;2022-12-18T04:08:00;97907.94;;;-3.97;100.00
55289;BME280;41154;45.394;5.734;2022-12-18T04:10:27;97915.75;;;-4.07;100.00
55289;BME280;41154;45.394;5.734;2022-12-18T04:12:56;97919.75;;;-4.12;100.00
55289;BME280;41154;45.394;5.734;2022-12-18T04:15:23;97921.22;;;-4.29;100.00
55289;BME280;41154;45.394;5.734;2022-12-18T04:17:50;97916.41;;;-4.24;100.00
55289;BME280;41154;45.394;5.734;2022-12-18T04:20:19;97924.53;;;-4.27;100.00
55289;BME280;41154;45.394;5.734;2022-12-18T04:22:47;97917.00;;;-4.11;100.00
55289;BME280;41154;45.394;5.734;2022-12-18T04:25:13;97931.81;;;-4.31;100.00
55289;BME280;41154;45.394;5.734;2022-12-18T04:27:49;97920.44;;;-4.51;100.00
55289;BME280;41154;45.394;5.734;2022-12-18T04:30:15;97912.81;;;-4.33;100.00
55289;BME280;41154;45.394;5.734;2022-12-18T04:32:41;97922.28;;;-4.42;100.00
55289;BME280;41154;45.394;5.734;2022-12-18T04:35:08;97923.94;;;-4.41;100.00
55289;BME280;41154;45.394;5.734;2022-12-18T04:37:37;97917.66;;;-4.28;100.00
55289;BME280;41154;45.394;5.734;2022-12-18T04:40:04;97924.75;;;-4.40;100.00
55289;BME280;41154;45.394;5.734;2022-12-18T04:42:39;97921.75;;;-4.36;100.00
55289;BME280;41154;45.394;5.734;2022-12-18T04:45:06;97923.56;;;-4.36;100.00
55289;BME280;41154;45.394;5.734;2022-12-18T04:47:32;97918.19;;;-4.35;100.00
55289;BME280;41154;45.394;5.734;2022-12-18T04:49:58;97929.34;;;-4.32;100.00
55289;BME280;41154;45.394;5.734;2022-12-18T04:52:24;97920.28;;;-4.28;100.00
55289;BME280;41154;45.394;5.734;2022-12-18T04:54:50;97923.19;;;-4.22;100.00
55289;BME280;41154;45.394;5.734;2022-12-18T04:57:16;97929.06;;;-4.39;100.00
55289;BME280;41154;45.394;5.734;2022-12-18T04:59:44;97935.91;;;-4.48;100.00
55289;BME280;41154;45.394;5.734;2022-12-18T05:02:10;97930.53;;;-4.46;100.00
55289;BME280;41154;45.394;5.734;2022-12-18T05:04:36;97928.00;;;-4.27;100.00
55289;BME280;41154;45.394;5.734;2022-12-18T05:07:02;97927.28;;;-4.29;100.00
55289;BME280;41154;45.394;5.734;2022-12-18T05:09:28;97929.75;;;-4.37;100.00
55289;BME280;41154;45.394;5.734;2022-12-18T05:11:54;97930.16;;;-4.32;100.00
55289;BME280;41154;45.394;5.734;2022-12-18T05:14:20;97932.50;;;-4.39;100.00
55289;BME280;41154;45.394;5.734;2022-12-18T05:16:45;97938.25;;;-4.45;100.00
55289;BME280;41154;45.394;5.734;2022-12-18T05:19:11;97934.94;;;-4.47;100.00
55289;BME280;41154;45.394;5.734;2022-12-18T05:21:37;97936.78;;;-4.38;100.00
55289;BME280;41154;45.394;5.734;2022-12-18T05:24:03;97946.00;;;-4.34;100.00
55289;BME280;41154;45.394;5.734;2022-12-18T05:26:28;97943.13;;;-4.30;100.00
55289;BME280;41154;45.394;5.734;2022-12-18T05:28:56;97954.00;;;-4.35;100.00
55289;BME280;41154;45.394;5.734;2022-12-18T05:31:21;97950.16;;;-4.31;100.00
55289;BME280;41154;45.394;5.734;2022-12-18T05:33:47;97950.44;;;-4.24;100.00
55289;BME280;41154;45.394;5.734;2022-12-18T05:36:13;97962.47;;;-4.22;100.00
55289;BME280;41154;45.394;5.734;2022-12-18T05:38:39;97959.06;;;-4.12;100.00
55289;BME280;41154;45.394;5.734;2022-12-18T05:41:06;97964.78;;;-4.28;100.00
55289;BME280;41154;45.394;5.734;2022-12-18T05:43:34;97968.53;;;-4.21;100.00
55289;BME280;41154;45.394;5.734;2022-12-18T05:46:11;97962.19;;;-4.28;100.00
55289;BME280;41154;45.394;5.734;2022-12-18T05:48:37;97965.19;;;-4.33;100.00
55289;BME280;41154;45.394;5.734;2022-12-18T05:51:11;97967.75;;;-4.43;100.00
55289;BME280;41154;45.394;5.734;2022-12-18T05:53:37;97961.03;;;-4.36;100.00
55289;BME280;41154;45.394;5.734;2022-12-18T05:56:05;97962.19;;;-4.28;100.00
55289;BME280;41154;45.394;5.734;2022-12-18T05:58:32;97969.41;;;-4.42;100.00
55289;BME280;41154;45.394;5.734;2022-12-18T06:01:24;97973.00;;;-4.43;100.00
55289;BME280;41154;45.394;5.734;2022-12-18T06:03:50;97970.56;;;-4.35;100.00
55289;BME280;41154;45.394;5.734;2022-12-18T06:06:18;97978.69;;;-4.38;100.00
55289;BME280;41154;45.394;5.734;2022-12-18T06:08:44;97977.00;;;-4.39;100.00
55289;BME280;41154;45.394;5.734;2022-12-18T06:14:38;97997.94;;;-4.48;100.00
55289;BME280;41154;45.394;5.734;2022-12-18T06:17:05;97993.34;;;-4.56;100.00
55289;BME280;41154;45.394;5.734;2022-12-18T06:19:30;97999.34;;;-4.65;100.00
55289;BME280;41154;45.394;5.734;2022-12-18T06:21:56;98006.09;;;-4.63;100.00
55289;BME280;41154;45.394;5.734;2022-12-18T06:24:24;97999.66;;;-4.59;100.00
55289;BME280;41154;45.394;5.734;2022-12-18T06:26:50;98015.28;;;-4.47;100.00
55289;BME280;41154;45.394;5.734;2022-12-18T06:29:15;98013.94;;;-4.42;100.00
55289;BME280;41154;45.394;5.734;2022-12-18T06:31:43;98016.50;;;-4.52;100.00
55289;BME280;41154;45.394;5.734;2022-12-18T06:34:09;98028.25;;;-4.46;100.00
55289;BME280;41154;45.394;5.734;2022-12-18T06:36:35;98023.63;;;-4.32;100.00
55289;BME280;41154;45.394;5.734;2022-12-18T06:39:01;98033.41;;;-4.35;100.00
55289;BME280;41154;45.394;5.734;2022-12-18T06:41:26;98034.25;;;-4.34;100.00
55289;BME280;41154;45.394;5.734;2022-12-18T06:43:52;98044.66;;;-4.44;100.00
55289;BME280;41154;45.394;5.734;2022-12-18T06:46:18;98040.94;;;-4.41;100.00
55289;BME280;41154;45.394;5.734;2022-12-18T06:48:47;98049.78;;;-4.63;100.00
55289;BME280;41154;45.394;5.734;2022-12-18T06:51:19;98051.91;;;-4.78;100.00
55289;BME280;41154;45.394;5.734;2022-12-18T06:53:45;98055.84;;;-4.63;100.00
55289;BME280;41154;45.394;5.734;2022-12-18T06:56:10;98043.78;;;-4.54;100.00
55289;BME280;41154;45.394;5.734;2022-12-18T06:58:37;98056.75;;;-4.53;100.00
55289;BME280;41154;45.394;5.734;2022-12-18T07:01:05;98054.88;;;-4.62;100.00
55289;BME280;41154;45.394;5.734;2022-12-18T07:03:32;98055.56;;;-4.60;100.00
55289;BME280;41154;45.394;5.734;2022-12-18T07:05:58;98063.31;;;-4.58;100.00
55289;BME280;41154;45.394;5.734;2022-12-18T07:08:24;98072.66;;;-4.65;100.00
55289;BME280;41154;45.394;5.734;2022-12-18T07:10:50;98070.97;;;-4.66;100.00
55289;BME280;41154;45.394;5.734;2022-12-18T07:13:16;98065.56;;;-4.75;100.00
55289;BME280;41154;45.394;5.734;2022-12-18T07:15:43;98067.53;;;-4.67;100.00
55289;BME280;41154;45.394;5.734;2022-12-18T07:18:09;98074.13;;;-4.52;100.00
55289;BME280;41154;45.394;5.734;2022-12-18T07:20:36;98074.00;;;-4.50;100.00
55289;BME280;41154;45.394;5.734;2022-12-18T07:23:03;98071.50;;;-4.52;100.00
55289;BME280;41154;45.394;5.734;2022-12-18T07:25:29;98065.63;;;-4.44;100.00
55289;BME280;41154;45.394;5.734;2022-12-18T07:27:54;98056.16;;;-4.35;100.00
55289;BME280;41154;45.394;5.734;2022-12-18T07:30:20;98059.81;;;-4.17;100.00
55289;BME280;41154;45.394;5.734;2022-12-18T07:32:46;98068.06;;;-4.21;100.00
55289;BME280;41154;45.394;5.734;2022-12-18T07:35:12;98071.47;;;-4.09;100.00
55289;BME280;41154;45.394;5.734;2022-12-18T07:37:38;98069.13;;;-4.03;100.00
55289;BME280;41154;45.394;5.734;2022-12-18T07:40:04;98074.72;;;-4.17;100.00
55289;BME280;41154;45.394;5.734;2022-12-18T07:42:30;98067.28;;;-4.12;100.00
55289;BME280;41154;45.394;5.734;2022-12-18T07:44:56;98075.25;;;-4.23;100.00
55289;BME280;41154;45.394;5.734;2022-12-18T07:47:21;98083.84;;;-4.11;100.00
55289;BME280;41154;45.394;5.734;2022-12-18T07:49:47;98088.66;;;-3.86;100.00
55289;BME280;41154;45.394;5.734;2022-12-18T07:52:13;98083.38;;;-3.95;100.00
55289;BME280;41154;45.394;5.734;2022-12-18T07:54:39;98084.69;;;-3.80;100.00
55289;BME280;41154;45.394;5.734;2022-12-18T07:57:06;98094.56;;;-3.93;100.00
55289;BME280;41154;45.394;5.734;2022-12-18T07:59:31;98089.75;;;-3.88;100.00
55289;BME280;41154;45.394;5.734;2022-12-18T08:01:57;98093.63;;;-3.83;100.00
55289;BME280;41154;45.394;5.734;2022-12-18T08:04:24;98087.31;;;-3.80;100.00
55289;BME280;41154;45.394;5.734;2022-12-18T08:06:50;98090.41;;;-3.96;100.00
55289;BME280;41154;45.394;5.734;2022-12-18T08:09:16;98089.97;;;-4.01;100.00
55289;BME280;41154;45.394;5.734;2022-12-18T08:11:42;98073.94;;;-4.08;100.00
55289;BME280;41154;45.394;5.734;2022-12-18T08:14:08;98079.38;;;-4.21;100.00
55289;BME280;41154;45.394;5.734;2022-12-18T08:16:34;98082.41;;;-4.25;100.00
55289;BME280;41154;45.394;5.734;2022-12-18T08:18:59;98095.16;;;-4.11;100.00
55289;BME280;41154;45.394;5.734;2022-12-18T08:21:27;98100.16;;;-4.08;100.00
55289;BME280;41154;45.394;5.734;2022-12-18T08:23:55;98091.44;;;-4.08;100.00
55289;BME280;41154;45.394;5.734;2022-12-18T08:26:21;98088.47;;;-4.25;100.00
55289;BME280;41154;45.394;5.734;2022-12-18T08:28:48;98089.16;;;-4.02;100.00
55289;BME280;41154;45.394;5.734;2022-12-18T08:31:14;98095.84;;;-3.88;100.00
55289;BME280;41154;45.394;5.734;2022-12-18T08:33:40;98088.28;;;-4.02;100.00
55289;BME280;41154;45.394;5.734;2022-12-18T08:36:08;98080.44;;;-4.02;100.00
55289;BME280;41154;45.394;5.734;2022-12-18T08:38:34;98075.19;;;-4.02;100.00
55289;BME280;41154;45.394;5.734;2022-12-18T08:41:00;98076.63;;;-4.19;100.00
55289;BME280;41154;45.394;5.734;2022-12-18T08:43:26;98084.19;;;-3.95;100.00
55289;BME280;41154;45.394;5.734;2022-12-18T08:46:12;98093.63;;;-3.83;100.00
55289;BME280;41154;45.394;5.734;2022-12-18T08:48:38;98092.28;;;-3.77;100.00
55289;BME280;41154;45.394;5.734;2022-12-18T08:51:04;98084.59;;;-3.69;100.00
55289;BME280;41154;45.394;5.734;2022-12-18T08:53:29;98085.63;;;-3.81;100.00
55289;BME280;41154;45.394;5.734;2022-12-18T08:55:56;98088.94;;;-3.79;100.00
55289;BME280;41154;45.394;5.734;2022-12-18T08:58:22;98086.53;;;-3.61;100.00
55289;BME280;41154;45.394;5.734;2022-12-18T09:00:47;98094.63;;;-3.33;100.00
55289;BME280;41154;45.394;5.734;2022-12-18T09:03:15;98089.13;;;-2.52;100.00
55289;BME280;41154;45.394;5.734;2022-12-18T09:05:41;98092.69;;;-2.43;100.00
55289;BME280;41154;45.394;5.734;2022-12-18T09:08:07;98080.13;;;-1.92;100.00
55289;BME280;41154;45.394;5.734;2022-12-18T09:10:33;98086.28;;;-1.74;100.00
55289;BME280;41154;45.394;5.734;2022-12-18T09:12:59;98077.03;;;-1.22;100.00
55289;BME280;41154;45.394;5.734;2022-12-18T09:15:25;98083.00;;;-1.02;100.00
55289;BME280;41154;45.394;5.734;2022-12-18T09:17:50;98081.31;;;-1.03;100.00
55289;BME280;41154;45.394;5.734;2022-12-18T09:20:19;98082.16;;;-0.85;100.00
55289;BME280;41154;45.394;5.734;2022-12-18T09:22:44;98074.72;;;-1.07;100.00
55289;BME280;41154;45.394;5.734;2022-12-18T09:25:10;98082.91;;;-0.57;100.00
55289;BME280;41154;45.394;5.734;2022-12-18T09:27:36;98083.53;;;-0.37;100.00
55289;BME280;41154;45.394;5.734;2022-12-18T09:30:03;98093.16;;;-0.71;100.00
55289;BME280;41154;45.394;5.734;2022-12-18T09:32:29;98092.63;;;-0.57;100.00
55289;BME280;41154;45.394;5.734;2022-12-18T09:34:55;98088.94;;;-0.20;100.00
55289;BME280;41154;45.394;5.734;2022-12-18T09:37:21;98092.25;;;-0.18;100.00
55289;BME280;41154;45.394;5.734;2022-12-18T09:39:46;98093.66;;;-0.06;100.00
55289;BME280;41154;45.394;5.734;2022-12-18T09:42:20;98100.94;;;0.01;100.00
55289;BME280;41154;45.394;5.734;2022-12-18T09:44:50;98105.91;;;-0.23;100.00
55289;BME280;41154;45.394;5.734;2022-12-18T09:47:24;98112.63;;;-0.02;100.00
55289;BME280;41154;45.394;5.734;2022-12-18T09:50:37;98125.66;;;-0.01;100.00
55289;BME280;41154;45.394;5.734;2022-12-18T09:53:07;98135.63;;;0.14;100.00
55289;BME280;41154;45.394;5.734;2022-12-18T09:55:41;98146.44;;;0.55;100.00
55289;BME280;41154;45.394;5.734;2022-12-18T09:58:16;98143.19;;;0.69;100.00
55289;BME280;41154;45.394;5.734;2022-12-18T10:00:43;98142.28;;;0.52;100.00
55289;BME280;41154;45.394;5.734;2022-12-18T10:03:10;98145.97;;;0.68;100.00
55289;BME280;41154;45.394;5.734;2022-12-18T10:06:03;98143.38;;;0.76;100.00
55289;BME280;41154;45.394;5.734;2022-12-18T10:14:29;98135.53;;;1.01;100.00
55289;BME280;41154;45.394;5.734;2022-12-18T10:17:13;98127.16;;;1.22;100.00
55289;BME280;41154;45.394;5.734;2022-12-18T10:19:50;98121.59;;;0.82;100.00
55289;BME280;41154;45.394;5.734;2022-12-18T10:28:23;98107.91;;;0.87;100.00
55289;BME280;41154;45.394;5.734;2022-12-18T10:30:49;98102.28;;;0.74;100.00
55289;BME280;41154;45.394;5.734;2022-12-18T10:33:20;98104.19;;;1.14;100.00
55289;BME280;41154;45.394;5.734;2022-12-18T10:35:48;98100.22;;;1.18;100.00
55289;BME280;41154;45.394;5.734;2022-12-18T10:41:05;98096.28;;;1.80;100.00
55289;BME280;41154;45.394;5.734;2022-12-18T10:43:35;98084.53;;;1.74;100.00
55289;BME280;41154;45.394;5.734;2022-12-18T10:48:35;98087.53;;;1.47;100.00
55289;BME280;41154;45.394;5.734;2022-12-18T10:51:06;98077.44;;;1.58;100.00
55289;BME280;41154;45.394;5.734;2022-12-18T10:53:35;98071.50;;;1.81;100.00
55289;BME280;41154;45.394;5.734;2022-12-18T10:56:03;98077.25;;;1.85;100.00
55289;BME280;41154;45.394;5.734;2022-12-18T10:58:38;98071.09;;;2.01;100.00
55289;BME280;41154;45.394;5.734;2022-12-18T11:03:39;98071.13;;;2.48;100.00
55289;BME280;41154;45.394;5.734;2022-12-18T11:06:14;98073.91;;;2.55;100.00
55289;BME280;41154;45.394;5.734;2022-12-18T11:09:32;98072.03;;;2.32;100.00
55289;BME280;41154;45.394;5.734;2022-12-18T11:11:33;98064.69;;;2.51;100.00
55289;BME280;41154;45.394;5.734;2022-12-18T11:14:18;98064.78;;;2.18;100.00
55289;BME280;41154;45.394;5.734;2022-12-18T11:16:47;98056.16;;;2.32;100.00
55289;BME280;41154;45.394;5.734;2022-12-18T11:19:35;98052.00;;;2.30;100.00
55289;BME280;41154;45.394;5.734;2022-12-18T11:22:17;98041.53;;;2.45;100.00
55289;BME280;41154;45.394;5.734;2022-12-18T11:24:53;98042.69;;;2.74;100.00
55289;BME280;41154;45.394;5.734;2022-12-18T11:27:20;98049.56;;;2.91;100.00
55289;BME280;41154;45.394;5.734;2022-12-18T11:29:50;98057.97;;;2.72;100.00
55289;BME280;41154;45.394;5.734;2022-12-18T11:32:38;98055.88;;;2.59;100.00
55289;BME280;41154;45.394;5.734;2022-12-18T11:38:26;98052.69;;;2.24;100.00
55289;BME280;41154;45.394;5.734;2022-12-18T11:41:04;98043.50;;;2.03;100.00
55289;BME280;41154;45.394;5.734;2022-12-18T11:43:38;98045.47;;;2.09;100.00
55289;BME280;41154;45.394;5.734;2022-12-18T11:46:23;98032.19;;;2.18;100.00
55289;BME280;41154;45.394;5.734;2022-12-18T11:51:25;98036.13;;;2.30;100.00
55289;BME280;41154;45.394;5.734;2022-12-18T11:53:54;98033.78;;;2.35;100.00
55289;BME280;41154;45.394;5.734;2022-12-18T11:56:45;98025.88;;;2.27;100.00
55289;BME280;41154;45.394;5.734;2022-12-18T12:02:14;98034.84;;;2.57;100.00
55289;BME280;41154;45.394;5.734;2022-12-18T12:24:23;98002.34;;;2.95;100.00
55289;BME280;41154;45.394;5.734;2022-12-18T12:29:57;98005.69;;;2.88;100.00
55289;BME280;41154;45.394;5.734;2022-12-18T12:38:27;98007.16;;;2.91;100.00
55289;BME280;41154;45.394;5.734;2022-12-18T12:41:06;98009.09;;;2.97;100.00
55289;BME280;41154;45.394;5.734;2022-12-18T12:43:56;98016.00;;;3.06;100.00
55289;BME280;41154;45.394;5.734;2022-12-18T12:46:24;98020.13;;;3.09;100.00
55289;BME280;41154;45.394;5.734;2022-12-18T12:49:02;98016.41;;;3.18;100.00
55289;BME280;41154;45.394;5.734;2022-12-18T12:51:38;98000.44;;;3.27;100.00
55289;BME280;41154;45.394;5.734;2022-12-18T12:54:13;98009.16;;;3.12;100.00
55289;BME280;41154;45.394;5.734;2022-12-18T12:56:51;98002.72;;;3.06;100.00
55289;BME280;41154;45.394;5.734;2022-12-18T13:02:22;98003.25;;;2.79;100.00
55289;BME280;41154;45.394;5.734;2022-12-18T13:05:01;97998.38;;;2.91;100.00
55289;BME280;41154;45.394;5.734;2022-12-18T13:07:50;97990.91;;;2.94;100.00
55289;BME280;41154;45.394;5.734;2022-12-18T13:13:00;97987.00;;;2.82;100.00
55289;BME280;41154;45.394;5.734;2022-12-18T13:15:37;97985.59;;;2.71;100.00
55289;BME280;41154;45.394;5.734;2022-12-18T13:23:00;97986.31;;;2.88;100.00
55289;BME280;41154;45.394;5.734;2022-12-18T13:25:35;97977.59;;;2.79;100.00
55289;BME280;41154;45.394;5.734;2022-12-18T13:28:07;97978.94;;;2.75;100.00
55289;BME280;41154;45.394;5.734;2022-12-18T13:30:54;97969.75;;;2.86;100.00
55289;BME280;41154;45.394;5.734;2022-12-18T13:36:31;97966.28;;;2.85;100.00
55289;BME280;41154;45.394;5.734;2022-12-18T13:41:45;97956.84;;;2.60;100.00
55289;BME280;41154;45.394;5.734;2022-12-18T13:44:37;97966.03;;;2.72;100.00
55289;BME280;41154;45.394;5.734;2022-12-18T13:47:26;97964.63;;;2.84;100.00
55289;BME280;41154;45.394;5.734;2022-12-18T13:49:54;97964.03;;;2.74;100.00
55289;BME280;41154;45.394;5.734;2022-12-18T13:52:27;97961.44;;;2.66;100.00
55289;BME280;41154;45.394;5.734;2022-12-18T13:54:56;97961.22;;;2.53;100.00
55289;BME280;41154;45.394;5.734;2022-12-18T13:57:30;97971.06;;;2.36;100.00
55289;BME280;41154;45.394;5.734;2022-12-18T13:59:58;97966.50;;;2.53;100.00
55289;BME280;41154;45.394;5.734;2022-12-18T14:02:26;97968.63;;;2.57;100.00
55289;BME280;41154;45.394;5.734;2022-12-18T14:04:53;97969.63;;;2.56;100.00
55289;BME280;41154;45.394;5.734;2022-12-18T14:07:24;97968.22;;;2.68;100.00
55289;BME280;41154;45.394;5.734;2022-12-18T14:09:55;97966.41;;;2.69;100.00
55289;BME280;41154;45.394;5.734;2022-12-18T14:12:28;97965.81;;;2.59;100.00
55289;BME280;41154;45.394;5.734;2022-12-18T14:17:58;97965.59;;;2.68;100.00
55289;BME280;41154;45.394;5.734;2022-12-18T14:20:26;97967.94;;;2.63;100.00
55289;BME280;41154;45.394;5.734;2022-12-18T14:22:52;97964.44;;;2.63;100.00
55289;BME280;41154;45.394;5.734;2022-12-18T14:25:21;97964.38;;;2.48;100.00
55289;BME280;41154;45.394;5.734;2022-12-18T14:28:13;97961.41;;;2.43;100.00
55289;BME280;41154;45.394;5.734;2022-12-18T14:30:41;97964.03;;;2.51;100.00
55289;BME280;41154;45.394;5.734;2022-12-18T14:33:13;97968.94;;;2.62;100.00
55289;BME280;41154;45.394;5.734;2022-12-18T14:38:36;97979.66;;;2.69;100.00
55289;BME280;41154;45.394;5.734;2022-12-18T14:41:05;97974.88;;;2.64;100.00
55289;BME280;41154;45.394;5.734;2022-12-18T14:43:33;97971.94;;;2.59;100.00
55289;BME280;41154;45.394;5.734;2022-12-18T14:46:01;97974.53;;;2.36;100.00
55289;BME280;41154;45.394;5.734;2022-12-18T14:53:37;97969.25;;;1.96;100.00
55289;BME280;41154;45.394;5.734;2022-12-18T14:56:13;97970.97;;;1.81;100.00
55289;BME280;41154;45.394;5.734;2022-12-18T14:58:45;97966.53;;;1.73;100.00
55289;BME280;41154;45.394;5.734;2022-12-18T15:01:20;97971.81;;;1.73;100.00
55289;BME280;41154;45.394;5.734;2022-12-18T15:03:46;97972.75;;;1.89;100.00
55289;BME280;41154;45.394;5.734;2022-12-18T15:06:16;97977.34;;;2.03;100.00